sensor_id;sensor_type;location;lat;lon;timestamp;pressure;altitude;pressure_sealevel;temperature;humidity
49030;BME280;43337;52.070;4.508;2023-03-21T00:01:34;101742.16;;;8.60;100.00
49030;BME280;43337;52.070;4.508;2023-03-21T00:04:00;101721.31;;;8.54;100.00
49030;BME280;43337;52.070;4.508;2023-03-21T00:06:25;101733.41;;;8.61;100.00
49030;BME280;43337;52.070;4.508;2023-03-21T00:08:51;101729.91;;;8.61;100.00
49030;BME280;43337;52.070;4.508;2023-03-21T00:11:16;101716.16;;;8.49;100.00
49030;BME280;43337;52.070;4.508;2023-03-21T00:13:42;101722.16;;;8.54;100.00
49030;BME280;43337;52.070;4.508;2023-03-21T00:16:13;101720.41;;;8.55;100.00
49030;BME280;43337;52.070;4.508;2023-03-21T00:18:47;101702.22;;;8.46;100.00
49030;BME280;43337;52.070;4.508;2023-03-21T00:21:19;101732.47;;;8.65;100.00
49030;BME280;43337;52.070;4.508;2023-03-21T00:23:44;101731.56;;;8.65;100.00
49030;BME280;43337;52.070;4.508;2023-03-21T00:26:11;101738.53;;;8.67;100.00
49030;BME280;43337;52.070;4.508;2023-03-21T00:28:39;101737.66;;;8.67;100.00
49030;BME280;43337;52.070;4.508;2023-03-21T00:31:04;101722.13;;;8.58;100.00
49030;BME280;43337;52.070;4.508;2023-03-21T00:33:30;101729.03;;;8.62;100.00
49030;BME280;43337;52.070;4.508;2023-03-21T00:35:56;101734.13;;;8.68;100.00
49030;BME280;43337;52.070;4.508;2023-03-21T00:38:22;101732.47;;;8.65;100.00
49030;BME280;43337;52.070;4.508;2023-03-21T00:40:48;101728.03;;;8.67;100.00
49030;BME280;43337;52.070;4.508;2023-03-21T00:43:14;101717.72;;;8.58;100.00
49030;BME280;43337;52.070;4.508;2023-03-21T00:45:42;101715.09;;;8.58;100.00
49030;BME280;43337;52.070;4.508;2023-03-21T00:48:08;101726.31;;;8.66;100.00
49030;BME280;43337;52.070;4.508;2023-03-21T00:50:33;101723.69;;;8.66;100.00
49030;BME280;43337;52.070;4.508;2023-03-21T00:52:59;101714.97;;;8.64;100.00
49030;BME280;43337;52.070;4.508;2023-03-21T00:55:24;101702.84;;;8.57;100.00
49030;BME280;43337;52.070;4.508;2023-03-21T00:57:50;101691.59;;;8.52;100.00
49030;BME280;43337;52.070;4.508;2023-03-21T01:00:16;101704.53;;;8.61;100.00
49030;BME280;43337;52.070;4.508;2023-03-21T01:02:42;101656.88;;;8.36;100.00
49030;BME280;43337;52.070;4.508;2023-03-21T01:05:24;101692.41;;;8.55;100.00
49030;BME280;43337;52.070;4.508;2023-03-21T01:08:10;101702.75;;;8.63;100.00
49030;BME280;43337;52.070;4.508;2023-03-21T01:10:44;101703.59;;;8.65;100.00
49030;BME280;43337;52.070;4.508;2023-03-21T01:13:11;101692.19;;;8.65;100.00
49030;BME280;43337;52.070;4.508;2023-03-21T01:15:46;101698.34;;;8.65;100.00
49030;BME280;43337;52.070;4.508;2023-03-21T01:18:13;101661.81;;;8.53;100.00
49030;BME280;43337;52.070;4.508;2023-03-21T01:20:41;101679.97;;;8.65;100.00
49030;BME280;43337;52.070;4.508;2023-03-21T01:23:07;101642.88;;;8.39;100.00
49030;BME280;43337;52.070;4.508;2023-03-21T01:25:32;101648.69;;;8.53;100.00
49030;BME280;43337;52.070;4.508;2023-03-21T01:27:58;101650.47;;;8.52;100.00
49030;BME280;43337;52.070;4.508;2023-03-21T01:30:23;101640.06;;;8.48;100.00
49030;BME280;43337;52.070;4.508;2023-03-21T01:32:49;101671.19;;;8.65;100.00
49030;BME280;43337;52.070;4.508;2023-03-21T01:35:14;101665.13;;;8.63;100.00
49030;BME280;43337;52.070;4.508;2023-03-21T01:37:40;101646.13;;;8.51;100.00
49030;BME280;43337;52.070;4.508;2023-03-21T01:40:06;101642.56;;;8.54;100.00
49030;BME280;43337;52.070;4.508;2023-03-21T01:42:37;101649.44;;;8.60;100.00
49030;BME280;43337;52.070;4.508;2023-03-21T01:45:06;101643.44;;;8.53;100.00
49030;BME280;43337;52.070;4.508;2023-03-21T01:47:50;101639.09;;;8.53;100.00
49030;BME280;43337;52.070;4.508;2023-03-21T01:50:16;101648.53;;;8.61;100.00
49030;BME280;43337;52.070;4.508;2023-03-21T01:52:47;101654.69;;;8.60;100.00
49030;BME280;43337;52.070;4.508;2023-03-21T01:55:14;101640.69;;;8.59;100.00
49030;BME280;43337;52.070;4.508;2023-03-21T01:57:50;101663.25;;;8.69;100.00
49030;BME280;43337;52.070;4.508;2023-03-21T02:00:19;101621.75;;;8.45;100.00
49030;BME280;43337;52.070;4.508;2023-03-21T02:02:49;101652.81;;;8.65;100.00
49030;BME280;43337;52.070;4.508;2023-03-21T02:05:25;101626.84;;;8.52;100.00
49030;BME280;43337;52.070;4.508;2023-03-21T02:07:52;101623.34;;;8.52;100.00
49030;BME280;43337;52.070;4.508;2023-03-21T02:10:18;101636.31;;;8.61;100.00
49030;BME280;43337;52.070;4.508;2023-03-21T02:12:44;101647.50;;;8.69;100.00
49030;BME280;43337;52.070;4.508;2023-03-21T02:15:10;101633.69;;;8.60;100.00
49030;BME280;43337;52.070;4.508;2023-03-21T02:25:32;101637.97;;;8.65;100.00
49030;BME280;43337;52.070;4.508;2023-03-21T02:28:12;101632.72;;;8.64;100.00
49030;BME280;43337;52.070;4.508;2023-03-21T02:40:13;101616.31;;;8.54;100.00
49030;BME280;43337;52.070;4.508;2023-03-21T02:42:45;101595.50;;;8.45;100.00
49030;BME280;43337;52.070;4.508;2023-03-21T02:45:28;101611.94;;;8.53;100.00
49030;BME280;43337;52.070;4.508;2023-03-21T02:48:01;101591.22;;;8.41;100.00
49030;BME280;43337;52.070;4.508;2023-03-21T02:53:02;101585.91;;;8.44;100.00
49030;BME280;43337;52.070;4.508;2023-03-21T02:55:31;101592.88;;;8.46;100.00
49030;BME280;43337;52.070;4.508;2023-03-21T02:57:58;101585.13;;;8.40;100.00
49030;BME280;43337;52.070;4.508;2023-03-21T03:00:30;101599.72;;;8.52;100.00
49030;BME280;43337;52.070;4.508;2023-03-21T03:02:56;101599.78;;;8.49;100.00
49030;BME280;43337;52.070;4.508;2023-03-21T03:05:24;101588.44;;;8.48;100.00
49030;BME280;43337;52.070;4.508;2023-03-21T03:16:46;101607.59;;;8.52;100.00
49030;BME280;43337;52.070;4.508;2023-03-21T03:19:07;101601.50;;;8.51;100.00
49030;BME280;43337;52.070;4.508;2023-03-21T03:24:12;101573.72;;;8.41;100.00
49030;BME280;43337;52.070;4.508;2023-03-21T03:26:52;101592.03;;;8.44;100.00
49030;BME280;43337;52.070;4.508;2023-03-21T03:29:20;101594.53;;;8.49;100.00
49030;BME280;43337;52.070;4.508;2023-03-21T03:31:56;101592.72;;;8.52;100.00
49030;BME280;43337;52.070;4.508;2023-03-21T03:34:26;101590.16;;;8.51;100.00
49030;BME280;43337;52.070;4.508;2023-03-21T03:36:56;101585.00;;;8.46;100.00
49030;BME280;43337;52.070;4.508;2023-03-21T03:39:28;101588.44;;;8.50;100.00
49030;BME280;43337;52.070;4.508;2023-03-21T03:41:59;101561.56;;;8.37;100.00
49030;BME280;43337;52.070;4.508;2023-03-21T03:44:27;101565.06;;;8.36;100.00
49030;BME280;43337;52.070;4.508;2023-03-21T03:47:01;101585.69;;;8.53;100.00
49030;BME280;43337;52.070;4.508;2023-03-21T03:49:33;101555.34;;;8.41;100.00
49030;BME280;43337;52.070;4.508;2023-03-21T03:52:08;101582.28;;;8.51;100.00
49030;BME280;43337;52.070;4.508;2023-03-21T03:54:39;101570.97;;;8.47;100.00
49030;BME280;43337;52.070;4.508;2023-03-21T03:57:06;101585.69;;;8.53;100.00
49030;BME280;43337;52.070;4.508;2023-03-21T03:59:34;101583.09;;;8.53;100.00
49030;BME280;43337;52.070;4.508;2023-03-21T04:02:00;101560.72;;;8.35;100.00
49030;BME280;43337;52.070;4.508;2023-03-21T04:04:25;101566.75;;;8.42;100.00
49030;BME280;43337;52.070;4.508;2023-03-21T04:06:54;101564.13;;;8.40;100.00
49030;BME280;43337;52.070;4.508;2023-03-21T04:09:19;101571.88;;;8.45;100.00
49030;BME280;43337;52.070;4.508;2023-03-21T04:11:45;101571.09;;;8.41;100.00
49030;BME280;43337;52.070;4.508;2023-03-21T04:14:11;101546.91;;;8.25;100.00
49030;BME280;43337;52.070;4.508;2023-03-21T04:16:36;101567.69;;;8.36;100.00
49030;BME280;43337;52.070;4.508;2023-03-21T04:19:02;101550.44;;;8.24;100.00
49030;BME280;43337;52.070;4.508;2023-03-21T04:21:28;101552.09;;;8.28;100.00
49030;BME280;43337;52.070;4.508;2023-03-21T04:23:54;101565.94;;;8.38;100.00
49030;BME280;43337;52.070;4.508;2023-03-21T04:26:20;101567.69;;;8.36;100.00
49030;BME280;43337;52.070;4.508;2023-03-21T04:28:46;101565.09;;;8.35;100.00
49030;BME280;43337;52.070;4.508;2023-03-21T04:31:12;101556.38;;;8.32;100.00
49030;BME280;43337;52.070;4.508;2023-03-21T04:33:38;101533.16;;;8.16;100.00
49030;BME280;43337;52.070;4.508;2023-03-21T04:36:07;101540.13;;;8.17;100.00
49030;BME280;43337;52.070;4.508;2023-03-21T04:38:35;101552.97;;;8.29;100.00
49030;BME280;43337;52.070;4.508;2023-03-21T04:41:01;101557.31;;;8.30;100.00
49030;BME280;43337;52.070;4.508;2023-03-21T04:43:27;101553.94;;;8.25;100.00
49030;BME280;43337;52.070;4.508;2023-03-21T04:45:53;101560.81;;;8.30;100.00
49030;BME280;43337;52.070;4.508;2023-03-21T04:48:19;101520.91;;;8.15;100.00
49030;BME280;43337;52.070;4.508;2023-03-21T04:50:49;101551.19;;;8.31;100.00
49030;BME280;43337;52.070;4.508;2023-03-21T04:53:15;101537.34;;;8.24;100.00
49030;BME280;43337;52.070;4.508;2023-03-21T04:55:40;101528.63;;;8.22;100.00
49030;BME280;43337;52.070;4.508;2023-03-21T04:58:06;101499.22;;;8.08;100.00
49030;BME280;43337;52.070;4.508;2023-03-21T05:00:31;101537.28;;;8.26;100.00
49030;BME280;43337;52.070;4.508;2023-03-21T05:03:02;101525.13;;;8.23;100.00
49030;BME280;43337;52.070;4.508;2023-03-21T05:05:29;101523.19;;;8.31;100.00
49030;BME280;43337;52.070;4.508;2023-03-21T05:07:55;101518.13;;;8.22;100.00
49030;BME280;43337;52.070;4.508;2023-03-21T05:10:21;101533.63;;;8.33;100.00
49030;BME280;43337;52.070;4.508;2023-03-21T05:12:46;101526.78;;;8.27;100.00
49030;BME280;43337;52.070;4.508;2023-03-21T05:15:12;101511.22;;;8.20;100.00
49030;BME280;43337;52.070;4.508;2023-03-21T05:17:37;101537.13;;;8.33;100.00
49030;BME280;43337;52.070;4.508;2023-03-21T05:20:03;101526.63;;;8.33;100.00
49030;BME280;43337;52.070;4.508;2023-03-21T05:22:29;101505.16;;;8.16;100.00
49030;BME280;43337;52.070;4.508;2023-03-21T05:25:08;101523.25;;;8.28;100.00
49030;BME280;43337;52.070;4.508;2023-03-21T05:27:34;101525.81;;;8.30;100.00
49030;BME280;43337;52.070;4.508;2023-03-21T05:30:05;101530.19;;;8.31;100.00
49030;BME280;43337;52.070;4.508;2023-03-21T05:32:31;101530.25;;;8.28;100.00
49030;BME280;43337;52.070;4.508;2023-03-21T05:34:57;101532.78;;;8.32;100.00
49030;BME280;43337;52.070;4.508;2023-03-21T05:37:23;101531.06;;;8.31;100.00
49030;BME280;43337;52.070;4.508;2023-03-21T05:39:48;101535.31;;;8.37;100.00
49030;BME280;43337;52.070;4.508;2023-03-21T05:42:14;101537.97;;;8.36;100.00
49030;BME280;43337;52.070;4.508;2023-03-21T05:44:40;101526.72;;;8.29;100.00
49030;BME280;43337;52.070;4.508;2023-03-21T05:47:06;101509.56;;;8.16;100.00
49030;BME280;43337;52.070;4.508;2023-03-21T05:49:31;101529.34;;;8.30;100.00
49030;BME280;43337;52.070;4.508;2023-03-21T05:51:57;101518.91;;;8.26;100.00
49030;BME280;43337;52.070;4.508;2023-03-21T05:54:22;101507.63;;;8.22;100.00
49030;BME280;43337;52.070;4.508;2023-03-21T05:56:48;101514.63;;;8.23;100.00
49030;BME280;43337;52.070;4.508;2023-03-21T05:59:13;101515.44;;;8.25;100.00
49030;BME280;43337;52.070;4.508;2023-03-21T06:01:38;101538.00;;;8.34;100.00
49030;BME280;43337;52.070;4.508;2023-03-21T06:04:04;101527.47;;;8.36;100.00
49030;BME280;43337;52.070;4.508;2023-03-21T06:06:30;101530.16;;;8.32;100.00
49030;BME280;43337;52.070;4.508;2023-03-21T06:08:55;101507.69;;;8.21;100.00
49030;BME280;43337;52.070;4.508;2023-03-21T06:11:29;101540.63;;;8.34;100.00
49030;BME280;43337;52.070;4.508;2023-03-21T06:13:55;101534.47;;;8.35;100.00
49030;BME280;43337;52.070;4.508;2023-03-21T06:16:20;101536.31;;;8.31;100.00
49030;BME280;43337;52.070;4.508;2023-03-21T06:18:46;101522.44;;;8.26;100.00
49030;BME280;43337;52.070;4.508;2023-03-21T06:21:11;101507.78;;;8.16;100.00
49030;BME280;43337;52.070;4.508;2023-03-21T06:23:37;101534.50;;;8.33;100.00
49030;BME280;43337;52.070;4.508;2023-03-21T06:26:02;101539.69;;;8.38;100.00
49030;BME280;43337;52.070;4.508;2023-03-21T06:28:29;101538.81;;;8.38;100.00
49030;BME280;43337;52.070;4.508;2023-03-21T06:30:55;101525.75;;;8.33;100.00
49030;BME280;43337;52.070;4.508;2023-03-21T06:33:20;101531.84;;;8.35;100.00
49030;BME280;43337;52.070;4.508;2023-03-21T06:35:53;101538.00;;;8.34;100.00
49030;BME280;43337;52.070;4.508;2023-03-21T06:38:19;101537.13;;;8.33;100.00
49030;BME280;43337;52.070;4.508;2023-03-21T06:40:45;101531.97;;;8.30;100.00
49030;BME280;43337;52.070;4.508;2023-03-21T06:43:11;101515.59;;;8.18;100.00
49030;BME280;43337;52.070;4.508;2023-03-21T06:45:36;101514.75;;;8.17;100.00
49030;BME280;43337;52.070;4.508;2023-03-21T06:48:01;101530.16;;;8.32;100.00
49030;BME280;43337;52.070;4.508;2023-03-21T06:50:27;101518.91;;;8.26;100.00
49030;BME280;43337;52.070;4.508;2023-03-21T06:52:52;101523.19;;;8.30;100.00
49030;BME280;43337;52.070;4.508;2023-03-21T06:55:18;101522.34;;;8.29;100.00
49030;BME280;43337;52.070;4.508;2023-03-21T06:57:45;101506.75;;;8.23;100.00
49030;BME280;43337;52.070;4.508;2023-03-21T07:00:10;101505.72;;;8.30;100.00
49030;BME280;43337;52.070;4.508;2023-03-21T07:02:36;101483.25;;;8.19;100.00
49030;BME280;43337;52.070;4.508;2023-03-21T07:05:02;101487.63;;;8.18;100.00
49030;BME280;43337;52.070;4.508;2023-03-21T07:07:27;101485.78;;;8.23;100.00
49030;BME280;43337;52.070;4.508;2023-03-21T07:09:54;101487.53;;;8.23;100.00
49030;BME280;43337;52.070;4.508;2023-03-21T07:12:19;101490.06;;;8.26;100.00
49030;BME280;43337;52.070;4.508;2023-03-21T07:14:46;101500.59;;;8.24;100.00
49030;BME280;43337;52.070;4.508;2023-03-21T07:17:11;101491.13;;;8.17;100.00
49030;BME280;43337;52.070;4.508;2023-03-21T07:19:36;101492.69;;;8.26;100.00
49030;BME280;43337;52.070;4.508;2023-03-21T07:22:02;101492.75;;;8.24;100.00
49030;BME280;43337;52.070;4.508;2023-03-21T07:24:27;101484.81;;;8.26;100.00
49030;BME280;43337;52.070;4.508;2023-03-21T07:26:52;101489.16;;;8.28;100.00
49030;BME280;43337;52.070;4.508;2023-03-21T07:29:18;101490.75;;;8.36;100.00
49030;BME280;43337;52.070;4.508;2023-03-21T07:31:46;101496.88;;;8.35;100.00
49030;BME280;43337;52.070;4.508;2023-03-21T07:34:12;101495.19;;;8.32;100.00
49030;BME280;43337;52.070;4.508;2023-03-21T07:36:39;101497.72;;;8.38;100.00
49030;BME280;43337;52.070;4.508;2023-03-21T07:39:04;101495.97;;;8.37;100.00
49030;BME280;43337;52.070;4.508;2023-03-21T07:41:30;101473.41;;;8.28;100.00
49030;BME280;43337;52.070;4.508;2023-03-21T07:43:55;101482.84;;;8.39;100.00
49030;BME280;43337;52.070;4.508;2023-03-21T07:46:21;101471.53;;;8.33;100.00
49030;BME280;43337;52.070;4.508;2023-03-21T07:48:47;101475.00;;;8.36;100.00
49030;BME280;43337;52.070;4.508;2023-03-21T07:51:12;101462.72;;;8.36;100.00
49030;BME280;43337;52.070;4.508;2023-03-21T07:53:37;101462.72;;;8.38;100.00
49030;BME280;43337;52.070;4.508;2023-03-21T07:56:06;101451.38;;;8.36;100.00
49030;BME280;43337;52.070;4.508;2023-03-21T07:58:31;101471.13;;;8.53;100.00
49030;BME280;43337;52.070;4.508;2023-03-21T08:00:58;101458.94;;;8.51;100.00
49030;BME280;43337;52.070;4.508;2023-03-21T08:03:24;101452.75;;;8.53;100.00
49030;BME280;43337;52.070;4.508;2023-03-21T08:05:54;101475.22;;;8.65;100.00
49030;BME280;43337;52.070;4.508;2023-03-21T08:08:19;101461.25;;;8.63;100.00
49030;BME280;43337;52.070;4.508;2023-03-21T08:10:45;101441.09;;;8.64;100.00
49030;BME280;43337;52.070;4.508;2023-03-21T08:13:11;101451.22;;;8.80;100.00
49030;BME280;43337;52.070;4.508;2023-03-21T08:15:36;101453.66;;;8.87;100.00
49030;BME280;43337;52.070;4.508;2023-03-21T08:18:03;101431.19;;;8.75;100.00
49030;BME280;43337;52.070;4.508;2023-03-21T08:20:29;101457.91;;;8.92;100.00
49030;BME280;43337;52.070;4.508;2023-03-21T08:22:55;101438.81;;;8.86;100.00
49030;BME280;43337;52.070;4.508;2023-03-21T08:25:21;101423.19;;;8.79;100.00
49030;BME280;43337;52.070;4.508;2023-03-21T08:27:47;101429.94;;;8.90;100.00
49030;BME280;43337;52.070;4.508;2023-03-21T08:30:15;101445.19;;;9.10;100.00
49030;BME280;43337;52.070;4.508;2023-03-21T08:32:41;101438.16;;;9.10;100.00
49030;BME280;43337;52.070;4.508;2023-03-21T08:35:08;101434.53;;;9.14;100.00
49030;BME280;43337;52.070;4.508;2023-03-21T08:37:35;101437.03;;;9.20;100.00
49030;BME280;43337;52.070;4.508;2023-03-21T08:40:01;101421.38;;;9.16;100.00
49030;BME280;43337;52.070;4.508;2023-03-21T08:42:27;101433.25;;;9.31;100.00
49030;BME280;43337;52.070;4.508;2023-03-21T08:44:53;101427.81;;;9.37;100.00
49030;BME280;43337;52.070;4.508;2023-03-21T08:47:18;101418.94;;;9.41;100.00
49030;BME280;43337;52.070;4.508;2023-03-21T08:49:43;101428.41;;;9.46;100.00
49030;BME280;43337;52.070;4.508;2023-03-21T08:52:10;101420.47;;;9.48;100.00
49030;BME280;43337;52.070;4.508;2023-03-21T08:54:36;101411.03;;;9.41;100.00
49030;BME280;43337;52.070;4.508;2023-03-21T08:57:02;101429.84;;;9.57;100.00
49030;BME280;43337;52.070;4.508;2023-03-21T08:59:27;101426.22;;;9.61;100.00
49030;BME280;43337;52.070;4.508;2023-03-21T09:01:53;101416.84;;;9.52;100.00
49030;BME280;43337;52.070;4.508;2023-03-21T09:04:18;101389.00;;;9.46;100.00
49030;BME280;43337;52.070;4.508;2023-03-21T09:06:45;101412.16;;;9.63;100.00
49030;BME280;43337;52.070;4.508;2023-03-21T09:09:12;101386.06;;;9.57;100.00
49030;BME280;43337;52.070;4.508;2023-03-21T09:11:37;101393.72;;;9.65;100.00
49030;BME280;43337;52.070;4.508;2023-03-21T09:14:03;101378.88;;;9.62;100.00
49030;BME280;43337;52.070;4.508;2023-03-21T09:16:29;101364.06;;;9.60;100.00
49030;BME280;43337;52.070;4.508;2023-03-21T09:18:55;101381.13;;;9.74;100.00
49030;BME280;43337;52.070;4.508;2023-03-21T09:21:24;101357.78;;;9.65;100.00
49030;BME280;43337;52.070;4.508;2023-03-21T09:23:49;101362.88;;;9.70;100.00
49030;BME280;43337;52.070;4.508;2023-03-21T09:26:23;101381.75;;;9.84;100.00
49030;BME280;43337;52.070;4.508;2023-03-21T09:28:49;101396.41;;;9.91;100.00
49030;BME280;43337;52.070;4.508;2023-03-21T09:31:16;101390.19;;;9.94;100.00
49030;BME280;43337;52.070;4.508;2023-03-21T09:33:45;101385.78;;;9.94;100.00
49030;BME280;43337;52.070;4.508;2023-03-21T09:36:11;101374.50;;;9.91;100.00
49030;BME280;43337;52.070;4.508;2023-03-21T09:38:42;101377.72;;;10.00;100.00
49030;BME280;43337;52.070;4.508;2023-03-21T09:46:44;101392.50;;;10.05;100.00
49030;BME280;43337;52.070;4.508;2023-03-21T09:49:15;101387.91;;;10.11;100.00
49030;BME280;43337;52.070;4.508;2023-03-21T09:51:44;101386.16;;;10.10;100.00
49030;BME280;43337;52.070;4.508;2023-03-21T09:54:40;101383.41;;;10.15;100.00
49030;BME280;43337;52.070;4.508;2023-03-21T09:59:57;101400.47;;;10.31;100.00
49030;BME280;43337;52.070;4.508;2023-03-21T10:02:35;101390.63;;;10.36;100.00
49030;BME280;43337;52.070;4.508;2023-03-21T10:05:11;101380.00;;;10.39;100.00
49030;BME280;43337;52.070;4.508;2023-03-21T10:07:41;101387.75;;;10.44;100.00
49030;BME280;43337;52.070;4.508;2023-03-21T10:10:14;101372.63;;;10.50;100.00
49030;BME280;43337;52.070;4.508;2023-03-21T10:12:42;101354.38;;;10.44;100.00
49030;BME280;43337;52.070;4.508;2023-03-21T10:15:10;101362.94;;;10.51;100.00
49030;BME280;43337;52.070;4.508;2023-03-21T10:17:42;101384.50;;;10.62;100.00
49030;BME280;43337;52.070;4.508;2023-03-21T10:23:14;101403.78;;;10.63;100.00
49030;BME280;43337;52.070;4.508;2023-03-21T10:25:50;101400.22;;;10.65;100.00
49030;BME280;43337;52.070;4.508;2023-03-21T10:28:24;101388.19;;;10.57;100.00
49030;BME280;43337;52.070;4.508;2023-03-21T10:31:00;101396.84;;;10.60;100.00
49030;BME280;43337;52.070;4.508;2023-03-21T10:33:31;101414.22;;;10.66;100.00
49030;BME280;43337;52.070;4.508;2023-03-21T10:36:01;101414.25;;;10.64;100.00
49030;BME280;43337;52.070;4.508;2023-03-21T10:38:28;101406.31;;;10.66;100.00
49030;BME280;43337;52.070;4.508;2023-03-21T10:40:54;101383.91;;;10.54;100.00
49030;BME280;43337;52.070;4.508;2023-03-21T10:45:53;101391.75;;;10.56;100.00
49030;BME280;43337;52.070;4.508;2023-03-21T10:48:19;101371.78;;;10.48;100.00
49030;BME280;43337;52.070;4.508;2023-03-21T10:50:48;101367.00;;;10.35;100.00
49030;BME280;43337;52.070;4.508;2023-03-21T10:53:18;101363.78;;;10.51;100.00
49030;BME280;43337;52.070;4.508;2023-03-21T10:55:47;101369.91;;;10.52;100.00
49030;BME280;43337;52.070;4.508;2023-03-21T10:58:17;101373.47;;;10.51;100.00
49030;BME280;43337;52.070;4.508;2023-03-21T11:00:56;101361.41;;;10.44;100.00
49030;BME280;43337;52.070;4.508;2023-03-21T11:03:27;101362.75;;;10.57;100.00
49030;BME280;43337;52.070;4.508;2023-03-21T11:09:08;101353.44;;;10.72;100.00
49030;BME280;43337;52.070;4.508;2023-03-21T11:11:52;101352.47;;;10.74;100.00
49030;BME280;43337;52.070;4.508;2023-03-21T11:14:40;101353.16;;;10.80;100.00
49030;BME280;43337;52.070;4.508;2023-03-21T11:19:46;101347.75;;;10.84;100.00
49030;BME280;43337;52.070;4.508;2023-03-21T11:22:12;101364.19;;;10.91;100.00
49030;BME280;43337;52.070;4.508;2023-03-21T11:24:40;101352.75;;;10.92;100.00
49030;BME280;43337;52.070;4.508;2023-03-21T11:27:07;101365.75;;;10.96;100.00
49030;BME280;43337;52.070;4.508;2023-03-21T11:29:37;101368.41;;;10.96;100.00
49030;BME280;43337;52.070;4.508;2023-03-21T11:32:18;101364.34;;;10.86;100.00
49030;BME280;43337;52.070;4.508;2023-03-21T11:34:49;101376.50;;;10.90;100.00
49030;BME280;43337;52.070;4.508;2023-03-21T11:37:24;101374.19;;;10.81;100.00
49030;BME280;43337;52.070;4.508;2023-03-21T11:39:59;101386.38;;;10.84;100.00
49030;BME280;43337;52.070;4.508;2023-03-21T11:42:31;101357.94;;;10.68;100.00
49030;BME280;43337;52.070;4.508;2023-03-21T11:45:02;101383.75;;;10.84;100.00
49030;BME280;43337;52.070;4.508;2023-03-21T11:47:28;101365.31;;;10.84;100.00
49030;BME280;43337;52.070;4.508;2023-03-21T11:49:55;101361.88;;;10.82;100.00
49030;BME280;43337;52.070;4.508;2023-03-21T11:55:31;101367.28;;;11.02;100.00
49030;BME280;43337;52.070;4.508;2023-03-21T11:58:10;101350.34;;;11.09;100.00
49030;BME280;43337;52.070;4.508;2023-03-21T12:00:55;101348.28;;;11.17;100.00
49030;BME280;43337;52.070;4.508;2023-03-21T12:06:04;101334.78;;;11.50;100.00
49030;BME280;43337;52.070;4.508;2023-03-21T12:08:47;101323.13;;;11.56;100.00
49030;BME280;43337;52.070;4.508;2023-03-21T12:14:38;101329.16;;;11.81;100.00
49030;BME280;43337;52.070;4.508;2023-03-21T12:17:37;101332.78;;;11.79;100.00
49030;BME280;43337;52.070;4.508;2023-03-21T12:20:13;101330.41;;;11.72;100.00
49030;BME280;43337;52.070;4.508;2023-03-21T12:22:55;101320.44;;;11.57;100.00
49030;BME280;43337;52.070;4.508;2023-03-21T12:25:28;101330.09;;;11.57;100.00
49030;BME280;43337;52.070;4.508;2023-03-21T12:31:12;101318.09;;;11.49;100.00
49030;BME280;43337;52.070;4.508;2023-03-21T12:33:58;101315.31;;;11.53;100.00
49030;BME280;43337;52.070;4.508;2023-03-21T12:36:40;101318.03;;;11.51;100.00
49030;BME280;43337;52.070;4.508;2023-03-21T12:39:31;101314.53;;;11.51;100.00
49030;BME280;43337;52.070;4.508;2023-03-21T12:44:46;101311.94;;;11.49;100.00
49030;BME280;43337;52.070;4.508;2023-03-21T12:47:24;101290.94;;;11.47;100.00
49030;BME280;43337;52.070;4.508;2023-03-21T12:50:04;101306.03;;;11.66;100.00
49030;BME280;43337;52.070;4.508;2023-03-21T12:52:38;101283.97;;;11.68;100.00
49030;BME280;43337;52.070;4.508;2023-03-21T12:55:22;101253.31;;;11.64;100.00
49030;BME280;43337;52.070;4.508;2023-03-21T12:57:59;101286.56;;;11.92;100.00
49030;BME280;43337;52.070;4.508;2023-03-21T13:00:43;101284.50;;;11.98;100.00
49030;BME280;43337;52.070;4.508;2023-03-21T13:03:32;101298.75;;;11.94;100.00
49030;BME280;43337;52.070;4.508;2023-03-21T13:06:03;101265.97;;;11.78;100.00
49030;BME280;43337;52.070;4.508;2023-03-21T13:08:34;101277.44;;;11.77;100.00
49030;BME280;43337;52.070;4.508;2023-03-21T13:11:02;101258.47;;;11.67;100.00
49030;BME280;43337;52.070;4.508;2023-03-21T13:13:49;101259.09;;;11.74;100.00
49030;BME280;43337;52.070;4.508;2023-03-21T13:21:49;101267.41;;;11.65;100.00
49030;BME280;43337;52.070;4.508;2023-03-21T13:26:52;101259.94;;;11.53;100.00
49030;BME280;43337;52.070;4.508;2023-03-21T13:29:29;101267.13;;;11.49;100.00
49030;BME280;43337;52.070;4.508;2023-03-21T13:32:07;101279.44;;;11.48;100.00
49030;BME280;43337;52.070;4.508;2023-03-21T13:34:32;101267.38;;;11.43;100.00
49030;BME280;43337;52.070;4.508;2023-03-21T13:37:00;101260.56;;;11.37;100.00
49030;BME280;43337;52.070;4.508;2023-03-21T13:39:27;101262.16;;;11.41;100.00
49030;BME280;43337;52.070;4.508;2023-03-21T13:41:54;101266.63;;;11.39;100.00
49030;BME280;43337;52.070;4.508;2023-03-21T13:47:05;101250.25;;;11.31;100.00
49030;BME280;43337;52.070;4.508;2023-03-21T13:55:39;101249.56;;;11.26;100.00
49030;BME280;43337;52.070;4.508;2023-03-21T13:58:38;101244.25;;;11.28;100.00
49030;BME280;43337;52.070;4.508;2023-03-21T14:01:18;101254.69;;;11.31;100.00
49030;BME280;43337;52.070;4.508;2023-03-21T14:03:46;101246.78;;;11.31;100.00
49030;BME280;43337;52.070;4.508;2023-03-21T14:06:14;101241.44;;;11.32;100.00
49030;BME280;43337;52.070;4.508;2023-03-21T14:08:44;101241.34;;;11.34;100.00
49030;BME280;43337;52.070;4.508;2023-03-21T14:11:15;101244.00;;;11.34;100.00
49030;BME280;43337;52.070;4.508;2023-03-21T14:13:43;101243.13;;;11.33;100.00
49030;BME280;43337;52.070;4.508;2023-03-21T14:16:13;101237.41;;;11.22;100.00
49030;BME280;43337;52.070;4.508;2023-03-21T14:18:51;101240.94;;;11.22;100.00
49030;BME280;43337;52.070;4.508;2023-03-21T14:21:24;101243.72;;;11.18;100.00